createdAt,value
2022-09-09T00:00:55.106Z,95.54
2022-09-09T00:04:09.615Z,95.71
2022-09-09T00:07:10.858Z,96.30
2022-09-09T00:09:50.247Z,96.81
2022-09-09T00:12:30.798Z,97.02
2022-09-09T00:15:12.780Z,98.02
2022-09-09T00:18:02.803Z,98.16
2022-09-09T00:20:36.922Z,98.15
2022-09-09T00:23:20.834Z,98.82
2022-09-09T00:26:02.403Z,98.97
2022-09-09T00:28:33.344Z,99.03
2022-09-09T00:31:14.951Z,99.32
2022-09-09T00:33:44.287Z,99.56
2022-09-09T00:36:19.522Z,99.97
2022-09-09T00:38:52.309Z,99.87
2022-09-09T00:41:57.572Z,100.00
2022-09-09T00:44:35.584Z,100.00
2022-09-09T00:47:27.810Z,100.00
2022-09-09T00:50:14.287Z,100.00
2022-09-09T00:52:56.862Z,100.00
2022-09-09T00:55:54.644Z,100.00
2022-09-09T00:58:22.207Z,100.00
2022-09-09T01:01:19.674Z,100.00
2022-09-09T01:03:54.912Z,100.00
2022-09-09T01:06:40.717Z,100.00
2022-09-09T01:09:55.867Z,100.00
2022-09-09T01:12:27.936Z,100.00
2022-09-09T01:15:11.321Z,100.00
2022-09-09T01:18:02.402Z,100.00
2022-09-09T01:20:45.536Z,100.00
2022-09-09T01:23:45.236Z,100.00
2022-09-09T01:26:44.616Z,100.00
2022-09-09T01:29:26.439Z,100.00
2022-09-09T01:32:00.753Z,100.00
2022-09-09T01:34:38.900Z,100.00
2022-09-09T01:37:13.042Z,100.00
2022-09-09T01:39:44.388Z,100.00
2022-09-09T01:42:17.193Z,100.00
2022-09-09T01:44:46.137Z,100.00
2022-09-09T01:47:15.706Z,100.00
2022-09-09T01:50:19.584Z,100.00
2022-09-09T01:52:50.625Z,100.00
2022-09-09T01:55:30.818Z,100.00
2022-09-09T01:58:25.180Z,100.00
2022-09-09T02:01:04.038Z,100.00
2022-09-09T02:03:34.771Z,100.00
2022-09-09T02:06:38.707Z,100.00
2022-09-09T02:09:23.546Z,100.00
2022-09-09T02:12:00.086Z,100.00
2022-09-09T02:14:42.281Z,100.00
2022-09-09T02:17:18.101Z,100.00
2022-09-09T02:20:08.673Z,100.00
2022-09-09T02:22:46.709Z,100.00
2022-09-09T02:25:20.637Z,100.00
2022-09-09T02:27:52.341Z,100.00
2022-09-09T02:30:21.460Z,100.00
2022-09-09T02:32:58.318Z,100.00
2022-09-09T02:35:40.716Z,100.00
2022-09-09T02:38:13.418Z,100.00
2022-09-09T02:40:44.821Z,100.00
2022-09-09T02:43:15.708Z,100.00
2022-09-09T02:46:11.301Z,100.00
2022-09-09T02:48:57.614Z,100.00
2022-09-09T02:52:01.772Z,100.00
2022-09-09T02:54:37.123Z,100.00
2022-09-09T02:57:17.050Z,100.00
2022-09-09T02:59:49.717Z,100.00
2022-09-09T03:02:17.809Z,100.00
2022-09-09T03:04:52.760Z,100.00
2022-09-09T03:07:21.686Z,100.00
2022-09-09T03:09:51.094Z,100.00
2022-09-09T03:12:18.772Z,100.00
2022-09-09T03:14:47.304Z,100.00
2022-09-09T03:17:15.635Z,100.00
2022-09-09T03:19:51.509Z,100.00
2022-09-09T03:22:19.623Z,100.00
2022-09-09T03:24:48.007Z,100.00
2022-09-09T03:27:16.035Z,100.00
2022-09-09T03:29:44.960Z,100.00
2022-09-09T03:32:18.509Z,100.00
2022-09-09T03:34:50.606Z,100.00
2022-09-09T03:37:19.164Z,100.00
2022-09-09T03:39:47.260Z,100.00
2022-09-09T03:42:20.766Z,100.00
2022-09-09T03:44:52.553Z,100.00
2022-09-09T03:47:23.721Z,100.00
2022-09-09T03:49:55.695Z,100.00
2022-09-09T03:52:26.048Z,100.00
2022-09-09T03:54:55.160Z,100.00
2022-09-09T03:57:23.465Z,100.00
2022-09-09T03:59:51.676Z,100.00
2022-09-09T04:02:19.366Z,100.00
2022-09-09T04:04:47.234Z,100.00
2022-09-09T04:07:15.606Z,100.00
2022-09-09T04:09:43.544Z,100.00
2022-09-09T04:12:14.191Z,100.00
2022-09-09T04:14:42.471Z,100.00
2022-09-09T04:17:10.183Z,100.00
2022-09-09T04:19:38.957Z,100.00
2022-09-09T04:22:06.523Z,100.00
2022-09-09T04:24:34.708Z,100.00
2022-09-09T04:27:03.170Z,100.00
2022-09-09T04:29:32.083Z,100.00
2022-09-09T04:31:59.910Z,100.00
2022-09-09T04:34:27.871Z,100.00
2022-09-09T04:36:57.269Z,100.00
2022-09-09T04:39:25.659Z,100.00
2022-09-09T04:41:54.143Z,100.00
2022-09-09T04:44:23.812Z,100.00
2022-09-09T04:46:51.739Z,100.00
2022-09-09T04:49:19.546Z,100.00
2022-09-09T04:51:48.014Z,100.00
2022-09-09T04:54:16.014Z,100.00
2022-09-09T04:56:45.675Z,100.00
2022-09-09T04:59:13.629Z,100.00
2022-09-09T05:01:46.644Z,100.00
2022-09-09T05:04:17.127Z,100.00
2022-09-09T05:06:45.106Z,100.00
2022-09-09T05:09:13.964Z,100.00
2022-09-09T05:11:42.889Z,100.00
2022-09-09T05:14:33.427Z,100.00
2022-09-09T05:17:02.675Z,100.00
2022-09-09T05:19:32.142Z,100.00
2022-09-09T05:21:59.775Z,100.00
2022-09-09T05:24:35.864Z,100.00
2022-09-09T05:27:06.951Z,100.00
2022-09-09T05:29:35.010Z,100.00
2022-09-09T05:32:05.709Z,100.00
2022-09-09T05:34:33.870Z,100.00
2022-09-09T05:37:02.222Z,100.00
2022-09-09T05:39:30.441Z,100.00
2022-09-09T05:41:58.082Z,100.00
2022-09-09T05:44:28.567Z,100.00
2022-09-09T05:46:57.004Z,100.00
2022-09-09T05:49:26.559Z,100.00
2022-09-09T05:51:54.728Z,100.00
2022-09-09T05:54:24.594Z,100.00
2022-09-09T05:56:54.627Z,100.00
2022-09-09T05:59:24.256Z,100.00
2022-09-09T06:01:54.190Z,100.00
2022-09-09T06:04:31.617Z,100.00
2022-09-09T06:07:02.036Z,100.00
2022-09-09T06:09:31.508Z,100.00
2022-09-09T06:11:59.378Z,100.00
2022-09-09T06:14:28.305Z,100.00
2022-09-09T06:16:58.937Z,100.00
2022-09-09T06:19:31.788Z,100.00
2022-09-09T06:22:00.880Z,100.00
2022-09-09T06:24:31.294Z,100.00
2022-09-09T06:27:00.371Z,100.00
2022-09-09T06:29:31.696Z,100.00
2022-09-09T06:31:59.955Z,100.00
2022-09-09T06:34:29.374Z,100.00
2022-09-09T06:36:59.570Z,100.00
2022-09-09T06:39:33.355Z,100.00
2022-09-09T06:42:01.646Z,100.00
2022-09-09T06:44:53.381Z,100.00
2022-09-09T06:47:50.631Z,100.00
2022-09-09T06:50:20.802Z,100.00
2022-09-09T06:52:49.882Z,100.00
2022-09-09T06:55:18.624Z,100.00
2022-09-09T06:57:46.887Z,100.00
2022-09-09T07:00:19.294Z,100.00
2022-09-09T07:02:47.778Z,100.00
2022-09-09T07:05:16.394Z,100.00
2022-09-09T07:07:45.571Z,100.00
2022-09-09T07:10:15.873Z,100.00
2022-09-09T07:12:45.301Z,100.00
2022-09-09T07:15:14.808Z,100.00
2022-09-09T07:17:46.068Z,100.00
2022-09-09T07:20:14.382Z,100.00
2022-09-09T07:22:42.641Z,100.00
2022-09-09T07:25:12.134Z,100.00
2022-09-09T07:27:40.708Z,100.00
2022-09-09T07:30:09.156Z,100.00
2022-09-09T07:32:37.318Z,100.00
2022-09-09T07:35:05.308Z,100.00
2022-09-09T07:37:33.327Z,100.00
2022-09-09T07:40:01.629Z,100.00
2022-09-09T07:42:31.500Z,100.00
2022-09-09T07:45:00.387Z,100.00
2022-09-09T07:47:28.137Z,100.00
2022-09-09T07:49:56.930Z,100.00
2022-09-09T07:52:30.107Z,100.00
2022-09-09T07:55:03.214Z,100.00
2022-09-09T07:57:32.538Z,100.00
2022-09-09T08:00:00.240Z,100.00
2022-09-09T08:02:30.396Z,100.00
2022-09-09T08:04:58.618Z,100.00
2022-09-09T08:07:27.178Z,100.00
2022-09-09T08:09:56.736Z,100.00
2022-09-09T08:12:29.691Z,100.00
2022-09-09T08:14:58.061Z,100.00
2022-09-09T08:17:29.821Z,100.00
2022-09-09T08:20:05.998Z,100.00
2022-09-09T08:22:35.290Z,100.00
2022-09-09T08:25:03.351Z,100.00
2022-09-09T08:27:34.982Z,100.00
2022-09-09T08:30:02.924Z,100.00
2022-09-09T08:32:31.686Z,100.00
2022-09-09T08:35:01.609Z,100.00
2022-09-09T08:37:30.683Z,100.00
2022-09-09T08:39:58.608Z,100.00
2022-09-09T08:43:02.669Z,100.00
2022-09-09T08:45:51.462Z,100.00
2022-09-09T08:49:00.699Z,100.00
2022-09-09T08:51:31.802Z,100.00
2022-09-09T08:54:03.892Z,100.00
2022-09-09T08:56:34.852Z,100.00
2022-09-09T08:59:04.689Z,100.00
2022-09-09T09:02:19.432Z,100.00
2022-09-09T09:05:04.171Z,100.00
2022-09-09T09:07:45.827Z,100.00
2022-09-09T09:10:44.162Z,100.00
2022-09-09T09:13:44.064Z,100.00
2022-09-09T09:16:20.508Z,99.62
2022-09-09T09:18:48.744Z,99.50
2022-09-09T09:21:51.478Z,99.50
2022-09-09T09:24:35.836Z,99.75
2022-09-09T09:27:16.729Z,99.52
2022-09-09T09:30:20.295Z,99.40
2022-09-09T09:32:55.375Z,99.22
2022-09-09T09:35:23.315Z,99.53
2022-09-09T09:40:58.703Z,100.00
2022-09-09T09:43:33.615Z,99.52
2022-09-09T09:46:21.034Z,98.86
2022-09-09T09:48:59.866Z,98.69
2022-09-09T09:51:31.223Z,98.67
2022-09-09T09:54:38.104Z,99.17
2022-09-09T09:57:17.484Z,98.45
2022-09-09T09:59:47.830Z,98.61
2022-09-09T10:02:27.656Z,98.97
2022-09-09T10:05:07.787Z,99.18
2022-09-09T10:07:38.417Z,99.68
2022-09-09T10:10:13.145Z,99.39
2022-09-09T10:13:02.858Z,99.55
2022-09-09T10:15:51.224Z,99.16
2022-09-09T10:18:58.875Z,98.38
2022-09-09T10:21:58.916Z,98.57
2022-09-09T10:24:52.697Z,98.18
2022-09-09T10:27:33.287Z,97.63
2022-09-09T10:30:40.964Z,97.21
2022-09-09T10:33:28.769Z,97.30
2022-09-09T10:36:19.010Z,97.03
2022-09-09T10:38:49.383Z,96.89
2022-09-09T10:41:51.551Z,96.96
2022-09-09T10:44:38.080Z,97.05
2022-09-09T10:47:36.956Z,97.29
2022-09-09T10:50:15.612Z,97.79
2022-09-09T10:53:22.431Z,97.28
2022-09-09T10:56:01.604Z,97.58
2022-09-09T10:58:42.377Z,97.31
2022-09-09T11:01:38.594Z,97.73
2022-09-09T11:04:14.587Z,97.76
2022-09-09T11:06:49.258Z,98.00
2022-09-09T11:09:32.151Z,98.68
2022-09-09T11:12:04.975Z,99.28
2022-09-09T11:15:00.447Z,99.30
2022-09-09T11:17:37.523Z,99.36
2022-09-09T11:20:12.125Z,98.27
2022-09-09T11:22:49.932Z,98.37
2022-09-09T11:25:23.189Z,98.19
2022-09-09T11:27:57.319Z,99.05
2022-09-09T11:30:55.642Z,98.88
2022-09-09T11:33:42.535Z,99.01
2022-09-09T11:36:38.133Z,98.84
2022-09-09T11:39:25.696Z,98.89
2022-09-09T11:41:53.305Z,99.11
2022-09-09T11:44:31.080Z,98.61
2022-09-09T11:46:58.712Z,98.45
2022-09-09T11:49:43.943Z,98.05
2022-09-09T11:52:27.703Z,98.49
2022-09-09T11:54:57.324Z,98.06
2022-09-09T11:57:33.179Z,97.45
2022-09-09T12:00:01.538Z,98.00
2022-09-09T12:02:51.344Z,97.97
2022-09-09T12:05:22.146Z,97.96
2022-09-09T12:07:56.706Z,97.59
2022-09-09T12:10:33.986Z,97.62
2022-09-09T12:13:16.449Z,98.08
2022-09-09T12:15:54.280Z,98.58
2022-09-09T12:18:34.917Z,98.55
2022-09-09T12:21:10.002Z,98.18
2022-09-09T12:23:41.361Z,97.77
2022-09-09T12:26:18.179Z,97.75
2022-09-09T12:29:00.717Z,98.16
2022-09-09T12:31:40.204Z,97.77
2022-09-09T12:34:26.438Z,97.96
2022-09-09T12:37:04.023Z,98.04
2022-09-09T12:39:58.595Z,98.39
2022-09-09T12:42:28.085Z,98.24
2022-09-09T12:44:58.860Z,98.15
2022-09-09T12:47:37.330Z,97.69
2022-09-09T12:50:05.431Z,97.73
2022-09-09T12:52:40.146Z,97.83
2022-09-09T12:55:09.724Z,97.92
2022-09-09T12:57:40.174Z,97.31
2022-09-09T13:00:18.378Z,96.75
2022-09-09T13:02:49.641Z,96.08
2022-09-09T13:05:26.092Z,95.59
2022-09-09T13:08:03.376Z,95.27
2022-09-09T13:10:52.958Z,95.12
2022-09-09T13:13:49.883Z,93.72
2022-09-09T13:16:42.077Z,93.50
2022-09-09T13:19:16.980Z,93.22
2022-09-09T13:21:44.789Z,92.74
2022-09-09T13:24:35.051Z,91.63
2022-09-09T13:27:05.678Z,90.43
2022-09-09T13:29:34.218Z,90.47
2022-09-09T13:32:07.337Z,90.09
2022-09-09T13:34:37.090Z,90.38
2022-09-09T13:37:07.640Z,91.01
2022-09-09T13:39:37.662Z,90.43
2022-09-09T13:42:07.973Z,90.49
2022-09-09T13:44:39.545Z,90.59
2022-09-09T13:47:29.903Z,90.59
2022-09-09T13:49:57.503Z,90.79
2022-09-09T13:52:27.809Z,89.93
2022-09-09T13:54:56.712Z,89.03
2022-09-09T13:57:26.246Z,88.56
2022-09-09T14:00:11.741Z,88.89
2022-09-09T14:02:40.188Z,88.31
2022-09-09T14:05:08.259Z,87.96
2022-09-09T14:07:35.895Z,88.81
2022-09-09T14:10:03.647Z,88.69
2022-09-09T14:12:31.499Z,89.03
2022-09-09T14:15:02.135Z,89.29
2022-09-09T14:17:31.584Z,89.92
2022-09-09T14:19:59.690Z,90.08
2022-09-09T14:22:27.545Z,90.49
2022-09-09T14:24:55.261Z,90.71
2022-09-09T14:27:23.049Z,90.96
2022-09-09T14:29:50.818Z,91.21
2022-09-09T14:32:18.476Z,91.02
2022-09-09T14:34:46.370Z,91.14
2022-09-09T14:37:13.993Z,91.96
2022-09-09T14:39:41.690Z,91.76
2022-09-09T14:42:12.077Z,91.83
2022-09-09T14:44:40.047Z,91.75
2022-09-09T14:47:08.978Z,91.48
2022-09-09T14:49:39.093Z,91.41
2022-09-09T14:52:10.360Z,91.15
2022-09-09T14:54:38.382Z,91.22
2022-09-09T14:57:05.966Z,91.13
2022-09-09T14:59:33.585Z,91.19
2022-09-09T15:02:05.258Z,90.65
2022-09-09T15:04:33.304Z,90.09
2022-09-09T15:07:00.856Z,89.66
2022-09-09T15:09:28.718Z,89.50
2022-09-09T15:11:56.531Z,89.37
2022-09-09T15:14:26.028Z,89.16
2022-09-09T15:16:53.938Z,88.93
2022-09-09T15:19:22.012Z,87.68
2022-09-09T15:21:50.185Z,87.71
2022-09-09T15:24:18.072Z,88.02
2022-09-09T15:26:45.670Z,88.26
2022-09-09T15:29:13.652Z,89.54
2022-09-09T15:31:41.514Z,89.97
2022-09-09T15:34:09.541Z,89.69
2022-09-09T15:36:40.746Z,89.76
2022-09-09T15:39:16.624Z,89.64
2022-09-09T15:41:49.624Z,89.93
2022-09-09T15:44:17.829Z,90.03
2022-09-09T15:46:50.888Z,90.18
2022-09-09T15:49:26.641Z,90.12
2022-09-09T15:51:59.579Z,90.51
2022-09-09T15:54:27.720Z,90.53
2022-09-09T15:56:58.330Z,90.92
2022-09-09T15:59:28.785Z,90.83
2022-09-09T16:01:58.060Z,90.96
2022-09-09T16:04:26.769Z,91.34
2022-09-09T16:07:01.945Z,91.81
2022-09-09T16:09:30.521Z,92.08
2022-09-09T16:12:01.845Z,92.02
2022-09-09T16:14:30.023Z,92.24
2022-09-09T16:16:57.804Z,92.72
2022-09-09T16:19:26.818Z,92.64
2022-09-09T16:21:54.676Z,92.86
2022-09-09T16:24:23.281Z,93.01
2022-09-09T16:26:54.192Z,92.31
2022-09-09T16:29:23.297Z,92.32
2022-09-09T16:31:52.498Z,92.20
2022-09-09T16:34:20.355Z,92.42
2022-09-09T16:36:49.516Z,92.68
2022-09-09T16:39:19.782Z,92.98
2022-09-09T16:41:49.498Z,93.44
2022-09-09T16:44:19.826Z,93.59
2022-09-09T16:46:50.058Z,93.66
2022-09-09T16:49:18.164Z,93.84
2022-09-09T16:51:54.127Z,93.88
2022-09-09T16:54:22.995Z,93.66
2022-09-09T16:56:50.825Z,93.56
2022-09-09T16:59:20.753Z,93.75
2022-09-09T17:01:51.138Z,93.87
2022-09-09T17:04:26.414Z,94.11
2022-09-09T17:06:56.863Z,94.35
2022-09-09T17:09:28.502Z,94.39
2022-09-09T17:11:56.674Z,94.46
2022-09-09T17:14:24.859Z,94.30
2022-09-09T17:16:53.011Z,94.34
2022-09-09T17:19:21.120Z,94.67
2022-09-09T17:24:39.505Z,95.29
2022-09-09T17:27:07.522Z,94.93
2022-09-09T17:29:37.012Z,94.67
2022-09-09T17:32:08.987Z,95.07
2022-09-09T17:34:37.172Z,95.43
2022-09-09T17:37:06.883Z,95.60
2022-09-09T17:39:35.215Z,95.49
2022-09-09T17:42:03.667Z,95.69
2022-09-09T17:44:33.230Z,95.00
2022-09-09T17:47:01.577Z,95.02
2022-09-09T17:49:29.375Z,95.43
2022-09-09T17:51:57.532Z,95.58
2022-09-09T17:54:25.600Z,95.65
2022-09-09T17:56:53.628Z,95.36
2022-09-09T17:59:21.378Z,95.51
2022-09-09T18:01:50.999Z,95.91
2022-09-09T18:04:19.563Z,96.05
2022-09-09T18:06:50.278Z,96.36
2022-09-09T18:09:23.352Z,96.52
2022-09-09T18:11:54.577Z,96.51
2022-09-09T18:14:31.968Z,96.69
2022-09-09T18:17:01.127Z,96.31
2022-09-09T18:19:30.903Z,96.23
2022-09-09T18:22:01.863Z,96.69
2022-09-09T18:24:31.406Z,96.88
2022-09-09T18:26:59.346Z,97.06
2022-09-09T18:29:27.248Z,96.99
2022-09-09T18:31:56.198Z,96.65
2022-09-09T18:34:28.831Z,96.98
2022-09-09T18:36:58.126Z,97.31
2022-09-09T18:39:29.718Z,97.65
2022-09-09T18:42:00.763Z,97.70
2022-09-09T18:44:35.597Z,97.46
2022-09-09T18:47:03.796Z,97.02
2022-09-09T18:49:33.328Z,96.16
2022-09-09T18:52:02.343Z,96.33
2022-09-09T18:54:31.734Z,96.20
2022-09-09T18:57:00.851Z,96.52
2022-09-09T18:59:28.828Z,96.40
2022-09-09T19:01:56.669Z,96.40
2022-09-09T19:04:26.079Z,96.81
2022-09-09T19:06:58.210Z,96.86
2022-09-09T19:09:32.468Z,96.51
2022-09-09T19:12:00.766Z,96.36
2022-09-09T19:14:29.222Z,96.53
2022-09-09T19:16:57.238Z,96.94
2022-09-09T19:19:28.836Z,97.10
2022-09-09T19:21:59.342Z,97.29
2022-09-09T19:24:30.400Z,97.51
2022-09-09T19:27:01.957Z,97.48
2022-09-09T19:29:32.384Z,97.29
2022-09-09T19:32:42.419Z,97.18
2022-09-09T19:34:51.069Z,97.49
2022-09-09T19:37:19.435Z,97.43
2022-09-09T19:39:47.938Z,97.16
2022-09-09T19:42:16.210Z,97.29
2022-09-09T19:44:44.112Z,97.52
2022-09-09T19:47:14.266Z,97.67
2022-09-09T19:49:46.714Z,97.12
2022-09-09T19:52:16.174Z,96.81
2022-09-09T19:54:45.138Z,96.91
2022-09-09T19:57:13.915Z,97.14
2022-09-09T19:59:41.743Z,97.27
2022-09-09T20:02:15.434Z,97.27
2022-09-09T20:04:44.641Z,97.30
2022-09-09T20:07:13.148Z,97.22
2022-09-09T20:09:40.744Z,97.44
2022-09-09T20:12:08.755Z,97.17
2022-09-09T20:14:39.570Z,96.85
2022-09-09T20:17:07.958Z,96.94
2022-09-09T20:19:35.966Z,96.92
2022-09-09T20:22:03.648Z,96.00
2022-09-09T20:24:31.374Z,95.78
2022-09-09T20:26:59.289Z,95.93
2022-09-09T20:29:26.815Z,96.22
2022-09-09T20:31:54.513Z,96.57
2022-09-09T20:34:22.907Z,96.55
2022-09-09T20:36:51.058Z,96.67
2022-09-09T20:39:20.786Z,96.97
2022-09-09T20:41:49.899Z,97.16
2022-09-09T20:44:20.106Z,96.97
2022-09-09T20:46:52.589Z,96.77
2022-09-09T20:49:23.020Z,97.05
2022-09-09T20:51:51.856Z,97.12
2022-09-09T20:54:30.227Z,97.66
2022-09-09T20:56:59.886Z,98.06
2022-09-09T20:59:31.600Z,97.70
2022-09-09T21:02:00.935Z,97.58
2022-09-09T21:04:29.198Z,97.88
2022-09-09T21:06:56.969Z,98.18
2022-09-09T21:09:24.890Z,98.58
2022-09-09T21:11:53.720Z,98.30
2022-09-09T21:14:22.305Z,97.88
2022-09-09T21:16:50.275Z,97.60
2022-09-09T21:19:17.851Z,97.42
2022-09-09T21:21:47.693Z,97.92
2022-09-09T21:24:15.646Z,97.51
2022-09-09T21:26:43.330Z,97.40
2022-09-09T21:29:11.330Z,97.68
2022-09-09T21:31:39.280Z,97.43
2022-09-09T21:34:07.306Z,97.45
2022-09-09T21:36:35.480Z,97.07
2022-09-09T21:39:03.259Z,96.93
2022-09-09T21:41:31.021Z,96.64
2022-09-09T21:43:58.704Z,96.88
2022-09-09T21:46:28.206Z,97.11
2022-09-09T21:48:57.513Z,96.98
2022-09-09T21:51:25.746Z,97.26
2022-09-09T21:53:58.518Z,97.63
2022-09-09T21:56:26.760Z,97.72
2022-09-09T21:59:03.912Z,97.94
2022-09-09T22:01:35.273Z,98.27
2022-09-09T22:04:03.699Z,98.47
2022-09-09T22:06:31.464Z,98.96
2022-09-09T22:08:59.411Z,99.40
2022-09-09T22:11:28.095Z,99.58
2022-09-09T22:13:55.979Z,99.43
2022-09-09T22:16:24.030Z,99.75
2022-09-09T22:18:54.706Z,99.53
2022-09-09T22:21:22.777Z,99.22
2022-09-09T22:23:55.515Z,99.21
2022-09-09T22:26:24.467Z,99.31
2022-09-09T22:28:53.855Z,99.33
2022-09-09T22:31:22.785Z,99.46
2022-09-09T22:33:52.028Z,99.11
2022-09-09T22:36:20.945Z,99.27
2022-09-09T22:38:50.219Z,99.09
2022-09-09T22:41:18.943Z,99.30
2022-09-09T22:43:47.076Z,99.14
2022-09-09T22:46:14.967Z,99.11
2022-09-09T22:48:43.835Z,99.49
2022-09-09T22:51:14.600Z,99.32
2022-09-09T22:53:44.726Z,98.51
2022-09-09T22:56:17.855Z,98.75
2022-09-09T22:58:46.397Z,98.66
2022-09-09T23:01:17.681Z,98.44
2022-09-09T23:03:46.550Z,98.26
2022-09-09T23:06:23.092Z,98.08
2022-09-09T23:08:56.521Z,98.42
2022-09-09T23:11:31.065Z,98.50
2022-09-09T23:14:01.691Z,98.91
2022-09-09T23:16:33.814Z,99.60
2022-09-09T23:19:02.042Z,99.82
2022-09-09T23:21:31.226Z,99.47
2022-09-09T23:24:00.140Z,99.48
2022-09-09T23:26:29.915Z,99.55
2022-09-09T23:28:59.780Z,100.00
2022-09-09T23:31:34.125Z,100.00
2022-09-09T23:34:02.313Z,100.00
2022-09-09T23:36:30.944Z,100.00
2022-09-09T23:39:04.322Z,100.00
2022-09-09T23:41:35.328Z,100.00
2022-09-09T23:44:04.575Z,99.88
2022-09-09T23:46:33.859Z,100.00
2022-09-09T23:49:02.706Z,100.00
2022-09-09T23:51:32.192Z,100.00
2022-09-09T23:54:03.023Z,99.88
2022-09-09T23:56:33.958Z,99.93
2022-09-09T23:59:01.629Z,100.00
